Wheaton, Illinois
Current Conditions -  °F | °C
As of 3:52 AM on Wednesday 26 Nov 2014 (Local Time) from KDPA Reporting Station
Haze Haze  
Wind Chill: 15°   Ceiling: Unl
Heat Index: 15°   Visibility: 5mi
Dew Point: 11°   Wind: 0mph
Humidity: 84%   Direction: NA
Pressure: 30.13"   Gusts: NA
Location:  41.87°N, 88.11°W
Report Text: KDPA 260952Z 00000KT 5SM BR CLR M09/M12 A3013 RMK AO2 SLP217 I1000 T10941117
Loading
Personal Weather Stations






























Interactive Weather Map New forecast layout! Learn more

10-Day Weather Forecast

Advertisements
Track Severe Weather on mobile